PWSweather.com
Personal Weather Stations
Station Observations
SPARKSRC
St. Petersburg, FL 33716

St. Petersburg, FL 33716

Lat: 27.876101, Lon: -82.657194

Elevation: 13

Station Type: Zephyr PWS-1000TD

Latest ConditionsUpdated 5:10:02 PM EDT Tuesday, Sep 2, 2014
Currently Today's Max Today's Min Today's Average
Temperature 84.2°F29.0°C 101.7°F38.7°C 79.9°F26.6°C 86.0°F30.0°C
Dew Point 77.8°F25.4°C 84.3°F29.1°C 75.9°F24.4°C 81.0°F27.2°C
Winds 4.5 mph NW7.2 kmh NW 14.5 mph NE23.3 kmh NE - 3.8 mph 6.1 kmh
Wind Gusts 9.2 mph14.8 kmh 27.3 mph43.9 kmh - -
Humidity 81% 99% 55% 87%
Pressure 29.93 in1013.5 mb 30.05 in1017.6 mb 29.93 in1013.5 mb -
Precipitation - 0.02 in0.5 mm - -
Hour Temp Dew Point Humidity Winds Wind Gusts Pressure Precip Precip Rate Daily Precip Total
05:10 PM 84.2°F29.0°C 77.8°F25.4°C 81% 4.5 mph NW7.2 kmh NW 9.2 mph14.8 kmh 29.93 in1013.5 mb 0.00 in0.0 mm 0.00 in/hr0.0 mm/hr 0.02 in0.5 mm
05:05 PM 84.2°F29.0°C 78.2°F25.7°C 82% 5.4 mph WNW8.7 kmh WNW 9.2 mph14.8 kmh 29.93 in1013.5 mb 0.00 in0.0 mm 0.00 in/hr0.0 mm/hr 0.02 in0.5 mm
05:00 PM 84.2°F29.0°C 78.2°F25.7°C 82% 5.4 mph WNW8.7 kmh WNW 9.2 mph14.8 kmh 29.94 in1013.9 mb 0.00 in0.0 mm 0.00 in/hr0.0 mm/hr 0.02 in0.5 mm
04:55 PM 84.0°F28.9°C 78.0°F25.6°C 82% 3.1 mph NW5.0 kmh NW 8.3 mph13.4 kmh 29.94 in1013.9 mb 0.00 in0.0 mm 0.00 in/hr0.0 mm/hr 0.02 in0.5 mm
04:50 PM 83.8°F28.8°C 77.8°F25.4°C 82% 5.4 mph WNW8.7 kmh WNW 8.3 mph13.4 kmh 29.94 in1013.9 mb 0.00 in0.0 mm 0.00 in/hr0.0 mm/hr 0.02 in0.5 mm
04:45 PM 83.8°F28.8°C 77.5°F25.3°C 81% 3.8 mph WNW6.1 kmh WNW 9.2 mph14.8 kmh 29.94 in1013.9 mb 0.00 in0.0 mm 0.00 in/hr0.0 mm/hr 0.02 in0.5 mm
04:40 PM 84.0°F28.9°C 77.3°F25.2°C 80% 4.5 mph NW7.2 kmh NW 9.2 mph14.8 kmh 29.95 in1014.2 mb 0.00 in0.0 mm 0.00 in/hr0.0 mm/hr 0.02 in0.5 mm
04:35 PM 84.0°F28.9°C 77.3°F25.2°C 80% 5.4 mph NW8.7 kmh NW 9.2 mph14.8 kmh 29.95 in1014.2 mb 0.00 in0.0 mm 0.00 in/hr0.0 mm/hr 0.02 in0.5 mm
04:30 PM 84.0°F28.9°C 76.9°F24.9°C 79% 4.5 mph WNW7.2 kmh WNW 13.6 mph21.9 kmh 29.96 in1014.6 mb 0.00 in0.0 mm 0.00 in/hr0.0 mm/hr 0.02 in0.5 mm
04:25 PM 83.8°F28.8°C 76.7°F24.8°C 79% 5.4 mph W8.7 kmh W 13.6 mph21.9 kmh 29.96 in1014.6 mb 0.00 in0.0 mm 0.00 in/hr0.0 mm/hr 0.02 in0.5 mm
04:20 PM 83.8°F28.8°C 75.9°F24.4°C 77% 7.6 mph W12.2 kmh W 13.0 mph20.9 kmh 29.96 in1014.6 mb 0.00 in0.0 mm 0.00 in/hr0.0 mm/hr 0.02 in0.5 mm
04:15 PM 84.9°F29.4°C 76.2°F24.6°C 75% 6.0 mph W9.7 kmh W 16.8 mph27.0 kmh 29.96 in1014.6 mb 0.00 in0.0 mm 0.00 in/hr0.0 mm/hr 0.02 in0.5 mm
04:10 PM 85.6°F29.8°C 76.9°F24.9°C 75% 7.6 mph W12.2 kmh W 16.8 mph27.0 kmh 29.96 in1014.6 mb 0.00 in0.0 mm 0.00 in/hr0.0 mm/hr 0.02 in0.5 mm
04:05 PM 85.5°F29.7°C 80.9°F27.2°C 86% 7.6 mph WSW12.2 kmh WSW 12.1 mph19.5 kmh 29.97 in1014.9 mb 0.01 in0.3 mm 0.00 in/hr0.0 mm/hr 0.02 in0.5 mm
04:00 PM 84.6°F29.2°C 80.0°F26.7°C 86% 6.9 mph W11.1 kmh W 12.1 mph19.5 kmh 29.96 in1014.6 mb 0.02 in0.5 mm 0.00 in/hr0.0 mm/hr 0.02 in0.5 mm
03:55 PM 82.4°F28.0°C 79.9°F26.6°C 92% 4.5 mph WNW7.2 kmh WNW 13.0 mph20.9 kmh 29.96 in1014.6 mb 0.02 in0.5 mm 0.00 in/hr0.0 mm/hr 0.02 in0.5 mm
03:50 PM 81.7°F27.6°C 79.2°F26.2°C 92% 8.3 mph WSW13.4 kmh WSW 16.8 mph27.0 kmh 29.97 in1014.9 mb 0.02 in0.5 mm 0.00 in/hr0.0 mm/hr 0.02 in0.5 mm
03:45 PM 82.0°F27.8°C 79.6°F26.4°C 92% 11.4 mph SW18.3 kmh SW 16.8 mph27.0 kmh 29.98 in1015.2 mb 0.02 in0.5 mm 0.00 in/hr0.0 mm/hr 0.02 in0.5 mm
03:40 PM 83.1°F28.4°C 81.0°F27.2°C 93% 11.4 mph SW18.3 kmh SW 16.8 mph27.0 kmh 29.98 in1015.2 mb 0.02 in0.5 mm 0.00 in/hr0.0 mm/hr 0.02 in0.5 mm
03:35 PM 84.7°F29.3°C 81.9°F27.7°C 91% 12.1 mph SW19.5 kmh SW 15.2 mph24.5 kmh 29.98 in1015.2 mb 0.02 in0.5 mm 0.00 in/hr0.0 mm/hr 0.02 in0.5 mm
03:30 PM 86.2°F30.1°C 81.9°F27.7°C 87% 7.6 mph SW12.2 kmh SW 9.8 mph15.8 kmh 29.98 in1015.2 mb 0.02 in0.5 mm 0.00 in/hr0.0 mm/hr 0.02 in0.5 mm
03:25 PM 86.5°F30.3°C 81.6°F27.6°C 85% 3.1 mph S5.0 kmh S 3.8 mph6.1 kmh 29.98 in1015.2 mb 0.02 in0.5 mm 0.00 in/hr0.0 mm/hr 0.02 in0.5 mm
03:20 PM 86.4°F30.2°C 80.7°F27.1°C 83% 0.7 mph NE1.1 kmh NE 5.4 mph8.7 kmh 29.98 in1015.2 mb 0.02 in0.5 mm 0.00 in/hr0.0 mm/hr 0.02 in0.5 mm
03:15 PM 85.6°F29.8°C 79.6°F26.4°C 82% 0.7 mph E1.1 kmh E 10.7 mph17.2 kmh 29.98 in1015.2 mb 0.02 in0.5 mm 0.00 in/hr0.0 mm/hr 0.02 in0.5 mm
03:10 PM 85.8°F29.9°C 79.4°F26.3°C 81% 3.8 mph ENE6.1 kmh ENE 16.8 mph27.0 kmh 29.98 in1015.2 mb 0.02 in0.5 mm 0.12 in/hr3.0 mm/hr 0.02 in0.5 mm
03:05 PM 86.9°F30.5°C 79.7°F26.5°C 79% 7.6 mph NE12.2 kmh NE 16.8 mph27.0 kmh 29.98 in1015.2 mb 0.01 in0.3 mm 0.12 in/hr3.0 mm/hr 0.01 in0.3 mm
03:00 PM 89.4°F31.9°C 80.5°F26.9°C 75% 13.0 mph NE20.9 kmh NE 21.3 mph34.3 kmh 29.98 in1015.2 mb 0.00 in0.0 mm 0.00 in/hr0.0 mm/hr 0.00 in0.0 mm
02:55 PM 92.3°F33.5°C 82.5°F28.1°C 73% 10.7 mph NE17.2 kmh NE 27.3 mph43.9 kmh 29.99 in1015.6 mb 0.00 in0.0 mm 0.00 in/hr0.0 mm/hr 0.00 in0.0 mm
02:50 PM 96.1°F35.6°C 82.0°F27.8°C 64% 14.5 mph NE23.3 kmh NE 27.3 mph43.9 kmh 29.99 in1015.6 mb 0.00 in0.0 mm 0.00 in/hr0.0 mm/hr 0.00 in0.0 mm
02:45 PM 100.2°F37.9°C 81.8°F27.7°C 56% 9.8 mph ENE15.8 kmh ENE 15.2 mph24.5 kmh 29.99 in1015.6 mb 0.00 in0.0 mm 0.00 in/hr0.0 mm/hr 0.00 in0.0 mm
02:40 PM 101.7°F38.7°C 82.6°F28.1°C 55% 4.5 mph E7.2 kmh E 13.0 mph20.9 kmh 29.99 in1015.6 mb 0.00 in0.0 mm 0.00 in/hr0.0 mm/hr 0.00 in0.0 mm
02:35 PM 101.3°F38.5°C 83.4°F28.6°C 57% 4.5 mph NE7.2 kmh NE 9.2 mph14.8 kmh 29.99 in1015.6 mb 0.00 in0.0 mm 0.00 in/hr0.0 mm/hr 0.00 in0.0 mm
02:30 PM 100.4°F38.0°C 82.5°F28.1°C 57% 5.4 mph NE8.7 kmh NE 10.7 mph17.2 kmh 29.99 in1015.6 mb 0.00 in0.0 mm 0.00 in/hr0.0 mm/hr 0.00 in0.0 mm
02:25 PM 100.2°F37.9°C 81.8°F27.7°C 56% 3.1 mph E5.0 kmh E 10.7 mph17.2 kmh 30.00 in1015.9 mb 0.00 in0.0 mm 0.00 in/hr0.0 mm/hr 0.00 in0.0 mm
02:20 PM 101.5°F38.6°C 83.5°F28.6°C 57% 5.4 mph ENE8.7 kmh ENE 10.7 mph17.2 kmh 30.00 in1015.9 mb 0.00 in0.0 mm 0.00 in/hr0.0 mm/hr 0.00 in0.0 mm
02:15 PM 101.5°F38.6°C 83.5°F28.6°C 57% 5.4 mph ENE8.7 kmh ENE 10.7 mph17.2 kmh 30.01 in1016.3 mb 0.00 in0.0 mm 0.00 in/hr0.0 mm/hr 0.00 in0.0 mm
02:10 PM 100.9°F38.3°C 83.0°F28.3°C 57% 5.4 mph NE8.7 kmh NE 10.7 mph17.2 kmh 30.00 in1015.9 mb 0.00 in0.0 mm 0.00 in/hr0.0 mm/hr 0.00 in0.0 mm
02:05 PM 101.1°F38.4°C 82.6°F28.1°C 56% 4.5 mph NNE7.2 kmh NNE 13.6 mph21.9 kmh 30.00 in1015.9 mb 0.00 in0.0 mm 0.00 in/hr0.0 mm/hr 0.00 in0.0 mm
02:00 PM 101.1°F38.4°C 83.2°F28.4°C 57% 4.5 mph N7.2 kmh N 13.6 mph21.9 kmh 30.01 in1016.3 mb 0.00 in0.0 mm 0.00 in/hr0.0 mm/hr 0.00 in0.0 mm
01:55 PM 101.3°F38.5°C 82.8°F28.2°C 56% 6.0 mph NNE9.7 kmh NNE 13.6 mph21.9 kmh 30.01 in1016.3 mb 0.00 in0.0 mm 0.00 in/hr0.0 mm/hr 0.00 in0.0 mm
01:50 PM 101.3°F38.5°C 83.9°F28.8°C 58% 5.4 mph NNE8.7 kmh NNE 10.7 mph17.2 kmh 30.01 in1016.3 mb 0.00 in0.0 mm 0.00 in/hr0.0 mm/hr 0.00 in0.0 mm
01:45 PM 100.8°F38.2°C 83.9°F28.8°C 59% 1.6 mph NNE2.6 kmh NNE 10.7 mph17.2 kmh 30.01 in1016.3 mb 0.00 in0.0 mm 0.00 in/hr0.0 mm/hr 0.00 in0.0 mm
01:40 PM 100.4°F38.0°C 84.1°F28.9°C 60% 3.8 mph NE6.1 kmh NE 9.8 mph15.8 kmh 30.01 in1016.3 mb 0.00 in0.0 mm 0.00 in/hr0.0 mm/hr 0.00 in0.0 mm
01:35 PM 99.5°F37.5°C 83.8°F28.8°C 61% 2.2 mph NNE3.5 kmh NNE 9.8 mph15.8 kmh 30.01 in1016.3 mb 0.00 in0.0 mm 0.00 in/hr0.0 mm/hr 0.00 in0.0 mm
01:30 PM 99.0°F37.2°C 83.8°F28.8°C 62% 6.0 mph N9.7 kmh N 9.8 mph15.8 kmh 30.01 in1016.3 mb 0.00 in0.0 mm 0.00 in/hr0.0 mm/hr 0.00 in0.0 mm
01:25 PM 98.4°F36.9°C 82.8°F28.2°C 61% 6.0 mph N9.7 kmh N 11.4 mph18.3 kmh 30.01 in1016.3 mb 0.00 in0.0 mm 0.00 in/hr0.0 mm/hr 0.00 in0.0 mm
01:20 PM 98.4°F36.9°C 82.8°F28.2°C 61% 6.0 mph N9.7 kmh N 12.1 mph19.5 kmh 30.02 in1016.6 mb 0.00 in0.0 mm 0.00 in/hr0.0 mm/hr 0.00 in0.0 mm
01:15 PM 98.6°F37.0°C 82.9°F28.3°C 61% 3.1 mph N5.0 kmh N 12.1 mph19.5 kmh 30.02 in1016.6 mb 0.00 in0.0 mm 0.00 in/hr0.0 mm/hr 0.00 in0.0 mm
01:10 PM 99.1°F37.3°C 83.4°F28.6°C 61% 4.5 mph NNE7.2 kmh NNE 11.4 mph18.3 kmh 30.02 in1016.6 mb 0.00 in0.0 mm 0.00 in/hr0.0 mm/hr 0.00 in0.0 mm
01:05 PM 99.1°F37.3°C 83.4°F28.6°C 61% 7.6 mph N12.2 kmh N 11.4 mph18.3 kmh 30.02 in1016.6 mb 0.00 in0.0 mm 0.00 in/hr0.0 mm/hr 0.00 in0.0 mm
01:00 PM 99.0°F37.2°C 83.8°F28.8°C 62% 4.5 mph NNE7.2 kmh NNE 11.4 mph18.3 kmh 30.02 in1016.6 mb 0.00 in0.0 mm 0.00 in/hr0.0 mm/hr 0.00 in0.0 mm
12:55 PM 99.0°F37.2°C 83.8°F28.8°C 62% 6.0 mph NE9.7 kmh NE 9.8 mph15.8 kmh 30.03 in1016.9 mb 0.00 in0.0 mm 0.00 in/hr0.0 mm/hr 0.00 in0.0 mm
12:50 PM 99.0°F37.2°C 84.3°F29.1°C 63% 4.5 mph NE7.2 kmh NE 9.8 mph15.8 kmh 30.03 in1016.9 mb 0.00 in0.0 mm 0.00 in/hr0.0 mm/hr 0.00 in0.0 mm
12:45 PM 98.8°F37.1°C 84.1°F28.9°C 63% 4.5 mph NE7.2 kmh NE 9.8 mph15.8 kmh 30.03 in1016.9 mb 0.00 in0.0 mm 0.00 in/hr0.0 mm/hr 0.00 in0.0 mm
12:40 PM 98.4°F36.9°C 83.3°F28.5°C 62% 3.8 mph NE6.1 kmh NE 9.2 mph14.8 kmh 30.03 in1016.9 mb 0.00 in0.0 mm 0.00 in/hr0.0 mm/hr 0.00 in0.0 mm
12:35 PM 98.2°F36.8°C 83.1°F28.4°C 62% Calm Calm 11.4 mph18.3 kmh 30.04 in1017.3 mb 0.00 in0.0 mm 0.00 in/hr0.0 mm/hr 0.00 in0.0 mm
12:30 PM 97.9°F36.6°C 83.2°F28.4°C 63% 6.9 mph NE11.1 kmh NE 11.4 mph18.3 kmh 30.04 in1017.3 mb 0.00 in0.0 mm 0.00 in/hr0.0 mm/hr 0.00 in0.0 mm
12:25 PM 97.5°F36.4°C 82.9°F28.3°C 63% 5.4 mph NE8.7 kmh NE 9.2 mph14.8 kmh 30.04 in1017.3 mb 0.00 in0.0 mm 0.00 in/hr0.0 mm/hr 0.00 in0.0 mm
12:20 PM 97.9°F36.6°C 83.2°F28.4°C 63% 0.7 mph NE1.1 kmh NE 8.3 mph13.4 kmh 30.04 in1017.3 mb 0.00 in0.0 mm 0.00 in/hr0.0 mm/hr 0.00 in0.0 mm
12:15 PM 97.9°F36.6°C 82.7°F28.2°C 62% 6.0 mph NE9.7 kmh NE 9.2 mph14.8 kmh 30.04 in1017.3 mb 0.00 in0.0 mm 0.00 in/hr0.0 mm/hr 0.00 in0.0 mm
12:10 PM 97.0°F36.1°C 82.4°F28.0°C 63% 3.1 mph NE5.0 kmh NE 9.2 mph14.8 kmh 30.04 in1017.3 mb 0.00 in0.0 mm 0.00 in/hr0.0 mm/hr 0.00 in0.0 mm
12:05 PM 96.1°F35.6°C 82.0°F27.8°C 64% 6.9 mph NE11.1 kmh NE 9.8 mph15.8 kmh 30.04 in1017.3 mb 0.00 in0.0 mm 0.00 in/hr0.0 mm/hr 0.00 in0.0 mm
12:00 PM 95.9°F35.5°C 82.3°F27.9°C 65% 6.0 mph NE9.7 kmh NE 9.8 mph15.8 kmh 30.04 in1017.3 mb 0.00 in0.0 mm 0.00 in/hr0.0 mm/hr 0.00 in0.0 mm
11:55 AM 95.4°F35.2°C 82.3°F27.9°C 66% 6.0 mph NE9.7 kmh NE 11.4 mph18.3 kmh 30.04 in1017.3 mb 0.00 in0.0 mm 0.00 in/hr0.0 mm/hr 0.00 in0.0 mm
11:50 AM 95.4°F35.2°C 82.3°F27.9°C 66% 4.5 mph NE7.2 kmh NE 11.4 mph18.3 kmh 30.05 in1017.6 mb 0.00 in0.0 mm 0.00 in/hr0.0 mm/hr 0.00 in0.0 mm
11:45 AM 95.4°F35.2°C 82.8°F28.2°C 67% 7.6 mph NE12.2 kmh NE 11.4 mph18.3 kmh 30.05 in1017.6 mb 0.00 in0.0 mm 0.00 in/hr0.0 mm/hr 0.00 in0.0 mm
11:40 AM 95.5°F35.3°C 82.9°F28.3°C 67% 6.0 mph NE9.7 kmh NE 11.4 mph18.3 kmh 30.04 in1017.3 mb 0.00 in0.0 mm 0.00 in/hr0.0 mm/hr 0.00 in0.0 mm
11:35 AM 95.7°F35.4°C 83.6°F28.7°C 68% 5.4 mph NE8.7 kmh NE 10.7 mph17.2 kmh 30.04 in1017.3 mb 0.00 in0.0 mm 0.00 in/hr0.0 mm/hr 0.00 in0.0 mm
11:30 AM 95.5°F35.3°C 83.8°F28.8°C 69% 4.5 mph E7.2 kmh E 10.7 mph17.2 kmh 30.04 in1017.3 mb 0.00 in0.0 mm 0.00 in/hr0.0 mm/hr 0.00 in0.0 mm
11:25 AM 95.2°F35.1°C 83.5°F28.6°C 69% 3.1 mph E5.0 kmh E 7.6 mph12.2 kmh 30.04 in1017.3 mb 0.00 in0.0 mm 0.00 in/hr0.0 mm/hr 0.00 in0.0 mm
11:20 AM 95.0°F35.0°C 84.2°F29.0°C 71% 4.5 mph ENE7.2 kmh ENE 8.3 mph13.4 kmh 30.05 in1017.6 mb 0.00 in0.0 mm 0.00 in/hr0.0 mm/hr 0.00 in0.0 mm
11:15 AM 93.9°F34.4°C 83.6°F28.7°C 72% 1.6 mph E2.6 kmh E 9.2 mph14.8 kmh 30.04 in1017.3 mb 0.00 in0.0 mm 0.00 in/hr0.0 mm/hr 0.00 in0.0 mm
11:10 AM 93.4°F34.1°C 82.7°F28.2°C 71% 3.1 mph ENE5.0 kmh ENE 9.2 mph14.8 kmh 30.05 in1017.6 mb 0.00 in0.0 mm 0.00 in/hr0.0 mm/hr 0.00 in0.0 mm
11:05 AM 93.0°F33.9°C 83.2°F28.4°C 73% 5.4 mph ENE8.7 kmh ENE 8.3 mph13.4 kmh 30.05 in1017.6 mb 0.00 in0.0 mm 0.00 in/hr0.0 mm/hr 0.00 in0.0 mm
11:00 AM 92.8°F33.8°C 83.0°F28.3°C 73% 4.5 mph ESE7.2 kmh ESE 8.3 mph13.4 kmh 30.05 in1017.6 mb 0.00 in0.0 mm 0.00 in/hr0.0 mm/hr 0.00 in0.0 mm
10:55 AM 92.1°F33.4°C 82.7°F28.2°C 74% 4.5 mph SSE7.2 kmh SSE 6.9 mph11.1 kmh 30.05 in1017.6 mb 0.00 in0.0 mm 0.00 in/hr0.0 mm/hr 0.00 in0.0 mm
10:50 AM 92.3°F33.5°C 82.1°F27.8°C 72% 3.8 mph SE6.1 kmh SE 8.3 mph13.4 kmh 30.05 in1017.6 mb 0.00 in0.0 mm 0.00 in/hr0.0 mm/hr 0.00 in0.0 mm
10:45 AM 92.8°F33.8°C 82.6°F28.1°C 72% 3.1 mph ESE5.0 kmh ESE 8.3 mph13.4 kmh 30.05 in1017.6 mb 0.00 in0.0 mm 0.00 in/hr0.0 mm/hr 0.00 in0.0 mm
10:40 AM 92.1°F33.4°C 84.0°F28.9°C 77% 4.5 mph ESE7.2 kmh ESE 6.9 mph11.1 kmh 30.04 in1017.3 mb 0.00 in0.0 mm 0.00 in/hr0.0 mm/hr 0.00 in0.0 mm
10:35 AM 91.6°F33.1°C 83.0°F28.3°C 76% 2.2 mph ESE3.5 kmh ESE 6.9 mph11.1 kmh 30.04 in1017.3 mb 0.00 in0.0 mm 0.00 in/hr0.0 mm/hr 0.00 in0.0 mm
10:30 AM 91.6°F33.1°C 83.0°F28.3°C 76% 4.5 mph E7.2 kmh E 7.6 mph12.2 kmh 30.04 in1017.3 mb 0.00 in0.0 mm 0.00 in/hr0.0 mm/hr 0.00 in0.0 mm
10:25 AM 91.0°F32.8°C 83.7°F28.7°C 79% 3.8 mph E6.1 kmh E 7.6 mph12.2 kmh 30.04 in1017.3 mb 0.00 in0.0 mm 0.00 in/hr0.0 mm/hr 0.00 in0.0 mm
10:20 AM 90.0°F32.2°C 83.1°F28.4°C 80% 3.8 mph ENE6.1 kmh ENE 7.6 mph12.2 kmh 30.03 in1016.9 mb 0.00 in0.0 mm 0.00 in/hr0.0 mm/hr 0.00 in0.0 mm
10:15 AM 89.1°F31.7°C 82.9°F28.3°C 82% 3.8 mph E6.1 kmh E 6.9 mph11.1 kmh 30.03 in1016.9 mb 0.00 in0.0 mm 0.00 in/hr0.0 mm/hr 0.00 in0.0 mm
10:10 AM 88.3°F31.3°C 82.2°F27.9°C 82% 3.8 mph SE6.1 kmh SE 6.0 mph9.7 kmh 30.03 in1016.9 mb 0.00 in0.0 mm 0.00 in/hr0.0 mm/hr 0.00 in0.0 mm
10:05 AM 88.2°F31.2°C 81.7°F27.6°C 81% 4.5 mph SE7.2 kmh SE 6.9 mph11.1 kmh 30.03 in1016.9 mb 0.00 in0.0 mm 0.00 in/hr0.0 mm/hr 0.00 in0.0 mm
10:00 AM 88.3°F31.3°C 81.9°F27.7°C 81% 3.8 mph SSE6.1 kmh SSE 6.9 mph11.1 kmh 30.03 in1016.9 mb 0.00 in0.0 mm 0.00 in/hr0.0 mm/hr 0.00 in0.0 mm
09:55 AM 88.2°F31.2°C 82.4°F28.0°C 83% 3.1 mph SSE5.0 kmh SSE 6.0 mph9.7 kmh 30.03 in1016.9 mb 0.00 in0.0 mm 0.00 in/hr0.0 mm/hr 0.00 in0.0 mm
09:50 AM 87.6°F30.9°C 82.6°F28.1°C 85% 2.2 mph SSE3.5 kmh SSE 6.0 mph9.7 kmh 30.03 in1016.9 mb 0.00 in0.0 mm 0.00 in/hr0.0 mm/hr 0.00 in0.0 mm
09:45 AM 87.3°F30.7°C 82.6°F28.1°C 86% 2.2 mph SSE3.5 kmh SSE 6.9 mph11.1 kmh 30.03 in1016.9 mb 0.00 in0.0 mm 0.00 in/hr0.0 mm/hr 0.00 in0.0 mm
09:40 AM 86.4°F30.2°C 82.5°F28.1°C 88% 3.1 mph SE5.0 kmh SE 8.3 mph13.4 kmh 30.03 in1016.9 mb 0.00 in0.0 mm 0.00 in/hr0.0 mm/hr 0.00 in0.0 mm
09:35 AM 86.0°F30.0°C 82.1°F27.8°C 88% 2.2 mph SE3.5 kmh SE 8.3 mph13.4 kmh 30.04 in1017.3 mb 0.00 in0.0 mm 0.00 in/hr0.0 mm/hr 0.00 in0.0 mm
09:30 AM 85.8°F29.9°C 82.3°F27.9°C 89% 5.4 mph SE8.7 kmh SE 8.3 mph13.4 kmh 30.04 in1017.3 mb 0.00 in0.0 mm 0.00 in/hr0.0 mm/hr 0.00 in0.0 mm
09:25 AM 85.3°F29.6°C 81.4°F27.4°C 88% 6.0 mph SE9.7 kmh SE 8.3 mph13.4 kmh 30.04 in1017.3 mb 0.00 in0.0 mm 0.00 in/hr0.0 mm/hr 0.00 in0.0 mm
09:20 AM 84.9°F29.4°C 81.7°F27.6°C 90% 4.5 mph SE7.2 kmh SE 7.6 mph12.2 kmh 30.03 in1016.9 mb 0.00 in0.0 mm 0.00 in/hr0.0 mm/hr 0.00 in0.0 mm
09:15 AM 84.9°F29.4°C 81.7°F27.6°C 90% 4.5 mph SE7.2 kmh SE 10.7 mph17.2 kmh 30.03 in1016.9 mb 0.00 in0.0 mm 0.00 in/hr0.0 mm/hr 0.00 in0.0 mm
09:10 AM 84.9°F29.4°C 82.4°F28.0°C 92% 5.4 mph SE8.7 kmh SE 10.7 mph17.2 kmh 30.03 in1016.9 mb 0.00 in0.0 mm 0.00 in/hr0.0 mm/hr 0.00 in0.0 mm
09:05 AM 84.9°F29.4°C 82.4°F28.0°C 92% 6.9 mph SE11.1 kmh SE 10.7 mph17.2 kmh 30.03 in1016.9 mb 0.00 in0.0 mm 0.00 in/hr0.0 mm/hr 0.00 in0.0 mm
09:00 AM 84.9°F29.4°C 82.4°F28.0°C 92% 3.8 mph ESE6.1 kmh ESE 6.9 mph11.1 kmh 30.03 in1016.9 mb 0.00 in0.0 mm 0.00 in/hr0.0 mm/hr 0.00 in0.0 mm
08:55 AM 84.6°F29.2°C 82.7°F28.2°C 94% 5.4 mph ESE8.7 kmh ESE 6.9 mph11.1 kmh 30.03 in1016.9 mb 0.00 in0.0 mm 0.00 in/hr0.0 mm/hr 0.00 in0.0 mm
08:50 AM 84.2°F29.0°C 83.0°F28.3°C 96% 3.1 mph SE5.0 kmh SE 6.0 mph9.7 kmh 30.03 in1016.9 mb 0.00 in0.0 mm 0.00 in/hr0.0 mm/hr 0.00 in0.0 mm
08:45 AM 84.0°F28.9°C 82.8°F28.2°C 96% 3.1 mph SE5.0 kmh SE 6.9 mph11.1 kmh 30.03 in1016.9 mb 0.00 in0.0 mm 0.00 in/hr0.0 mm/hr 0.00 in0.0 mm
08:40 AM 83.5°F28.6°C 82.6°F28.1°C 97% 4.5 mph ESE7.2 kmh ESE 7.6 mph12.2 kmh 30.03 in1016.9 mb 0.00 in0.0 mm 0.00 in/hr0.0 mm/hr 0.00 in0.0 mm
08:35 AM 83.5°F28.6°C 82.3°F27.9°C 96% 5.4 mph SE8.7 kmh SE 7.6 mph12.2 kmh 30.03 in1016.9 mb 0.00 in0.0 mm 0.00 in/hr0.0 mm/hr 0.00 in0.0 mm
08:30 AM 83.3°F28.5°C 82.4°F28.0°C 97% 3.8 mph SE6.1 kmh SE 8.3 mph13.4 kmh 30.02 in1016.6 mb 0.00 in0.0 mm 0.00 in/hr0.0 mm/hr 0.00 in0.0 mm
08:25 AM 83.1°F28.4°C 82.9°F28.3°C 99% 4.5 mph ESE7.2 kmh ESE 8.3 mph13.4 kmh 30.02 in1016.6 mb 0.00 in0.0 mm 0.00 in/hr0.0 mm/hr 0.00 in0.0 mm
08:20 AM 82.8°F28.2°C 82.5°F28.1°C 99% 3.8 mph ESE6.1 kmh ESE 7.6 mph12.2 kmh 30.02 in1016.6 mb 0.00 in0.0 mm 0.00 in/hr0.0 mm/hr 0.00 in0.0 mm
08:15 AM 82.4°F28.0°C 82.2°F27.9°C 99% 3.1 mph ESE5.0 kmh ESE 7.6 mph12.2 kmh 30.02 in1016.6 mb 0.00 in0.0 mm 0.00 in/hr0.0 mm/hr 0.00 in0.0 mm
08:10 AM 82.2°F27.9°C 82.0°F27.8°C 99% 6.0 mph E9.7 kmh E 7.6 mph12.2 kmh 30.01 in1016.3 mb 0.00 in0.0 mm 0.00 in/hr0.0 mm/hr 0.00 in0.0 mm
08:05 AM 81.7°F27.6°C 81.5°F27.5°C 99% 3.8 mph E6.1 kmh E 6.9 mph11.1 kmh 30.01 in1016.3 mb 0.00 in0.0 mm 0.00 in/hr0.0 mm/hr 0.00 in0.0 mm
08:00 AM 81.7°F27.6°C 81.5°F27.5°C 99% 3.8 mph ESE6.1 kmh ESE 7.6 mph12.2 kmh 30.01 in1016.3 mb 0.00 in0.0 mm 0.00 in/hr0.0 mm/hr 0.00 in0.0 mm
07:55 AM 81.5°F27.5°C 81.3°F27.4°C 99% 3.8 mph ESE6.1 kmh ESE 7.6 mph12.2 kmh 30.01 in1016.3 mb 0.00 in0.0 mm 0.00 in/hr0.0 mm/hr 0.00 in0.0 mm
07:50 AM 81.3°F27.4°C 81.1°F27.3°C 99% 3.8 mph ESE6.1 kmh ESE 7.6 mph12.2 kmh 30.01 in1016.3 mb 0.00 in0.0 mm 0.00 in/hr0.0 mm/hr 0.00 in0.0 mm
07:45 AM 81.1°F27.3°C 80.9°F27.2°C 99% 2.2 mph ESE3.5 kmh ESE 6.0 mph9.7 kmh 30.01 in1016.3 mb 0.00 in0.0 mm 0.00 in/hr0.0 mm/hr 0.00 in0.0 mm
07:40 AM 81.0°F27.2°C 80.7°F27.1°C 99% 3.1 mph ESE5.0 kmh ESE 5.4 mph8.7 kmh 30.01 in1016.3 mb 0.00 in0.0 mm 0.00 in/hr0.0 mm/hr 0.00 in0.0 mm
07:35 AM 80.8°F27.1°C 80.5°F26.9°C 99% 3.1 mph ESE5.0 kmh ESE 4.5 mph7.2 kmh 30.01 in1016.3 mb 0.00 in0.0 mm 0.00 in/hr0.0 mm/hr 0.00 in0.0 mm
07:30 AM 80.8°F27.1°C 80.5°F26.9°C 99% 1.6 mph ESE2.6 kmh ESE 3.8 mph6.1 kmh 30.00 in1015.9 mb 0.00 in0.0 mm 0.00 in/hr0.0 mm/hr 0.00 in0.0 mm
07:25 AM 80.8°F27.1°C 80.5°F26.9°C 99% 1.6 mph ESE2.6 kmh ESE 5.4 mph8.7 kmh 30.00 in1015.9 mb 0.00 in0.0 mm 0.00 in/hr0.0 mm/hr 0.00 in0.0 mm
07:20 AM 80.6°F27.0°C 80.4°F26.9°C 99% 3.1 mph ESE5.0 kmh ESE 6.0 mph9.7 kmh 30.00 in1015.9 mb 0.00 in0.0 mm 0.00 in/hr0.0 mm/hr 0.00 in0.0 mm
07:15 AM 80.6°F27.0°C 80.4°F26.9°C 99% 3.8 mph SE6.1 kmh SE 6.0 mph9.7 kmh 29.99 in1015.6 mb 0.00 in0.0 mm 0.00 in/hr0.0 mm/hr 0.00 in0.0 mm
07:10 AM 80.4°F26.9°C 80.2°F26.8°C 99% 3.8 mph SE6.1 kmh SE 6.0 mph9.7 kmh 29.99 in1015.6 mb 0.00 in0.0 mm 0.00 in/hr0.0 mm/hr 0.00 in0.0 mm
07:05 AM 80.4°F26.9°C 80.2°F26.8°C 99% 3.1 mph ESE5.0 kmh ESE 7.6 mph12.2 kmh 29.99 in1015.6 mb 0.00 in0.0 mm 0.00 in/hr0.0 mm/hr 0.00 in0.0 mm
07:00 AM 80.4°F26.9°C 80.2°F26.8°C 99% 3.1 mph E5.0 kmh E 7.6 mph12.2 kmh 29.98 in1015.2 mb 0.00 in0.0 mm 0.00 in/hr0.0 mm/hr 0.00 in0.0 mm
06:55 AM 80.2°F26.8°C 80.0°F26.7°C 99% 3.8 mph ESE6.1 kmh ESE 6.0 mph9.7 kmh 29.98 in1015.2 mb 0.00 in0.0 mm 0.00 in/hr0.0 mm/hr 0.00 in0.0 mm
06:50 AM 80.2°F26.8°C 80.0°F26.7°C 99% 3.8 mph ESE6.1 kmh ESE 5.4 mph8.7 kmh 29.98 in1015.2 mb 0.00 in0.0 mm 0.00 in/hr0.0 mm/hr 0.00 in0.0 mm
06:45 AM 80.2°F26.8°C 80.0°F26.7°C 99% 1.6 mph E2.6 kmh E 3.1 mph5.0 kmh 29.99 in1015.6 mb 0.00 in0.0 mm 0.00 in/hr0.0 mm/hr 0.00 in0.0 mm
06:40 AM 80.2°F26.8°C 80.0°F26.7°C 99% 1.6 mph E2.6 kmh E 5.4 mph8.7 kmh 29.98 in1015.2 mb 0.00 in0.0 mm 0.00 in/hr0.0 mm/hr 0.00 in0.0 mm
06:35 AM 80.2°F26.8°C 80.0°F26.7°C 99% 1.6 mph E2.6 kmh E 5.4 mph8.7 kmh 29.98 in1015.2 mb 0.00 in0.0 mm 0.00 in/hr0.0 mm/hr 0.00 in0.0 mm
06:30 AM 80.1°F26.7°C 79.8°F26.6°C 99% 3.8 mph ESE6.1 kmh ESE 5.4 mph8.7 kmh 29.98 in1015.2 mb 0.00 in0.0 mm 0.00 in/hr0.0 mm/hr 0.00 in0.0 mm
06:25 AM 80.2°F26.8°C 80.0°F26.7°C 99% 2.2 mph SE3.5 kmh SE 4.5 mph7.2 kmh 29.98 in1015.2 mb 0.00 in0.0 mm 0.00 in/hr0.0 mm/hr 0.00 in0.0 mm
06:20 AM 80.2°F26.8°C 80.0°F26.7°C 99% 1.6 mph SE2.6 kmh SE 6.0 mph9.7 kmh 29.97 in1014.9 mb 0.00 in0.0 mm 0.00 in/hr0.0 mm/hr 0.00 in0.0 mm
06:15 AM 80.2°F26.8°C 80.0°F26.7°C 99% 2.2 mph SE3.5 kmh SE 6.9 mph11.1 kmh 29.97 in1014.9 mb 0.00 in0.0 mm 0.00 in/hr0.0 mm/hr 0.00 in0.0 mm
06:10 AM 80.4°F26.9°C 80.2°F26.8°C 99% 3.1 mph SE5.0 kmh SE 6.9 mph11.1 kmh 29.97 in1014.9 mb 0.00 in0.0 mm 0.00 in/hr0.0 mm/hr 0.00 in0.0 mm
06:05 AM 80.4°F26.9°C 80.2°F26.8°C 99% 2.2 mph SE3.5 kmh SE 5.4 mph8.7 kmh 29.97 in1014.9 mb 0.00 in0.0 mm 0.00 in/hr0.0 mm/hr 0.00 in0.0 mm
06:00 AM 80.4°F26.9°C 80.2°F26.8°C 99% 3.1 mph SE5.0 kmh SE 6.0 mph9.7 kmh 29.97 in1014.9 mb 0.00 in0.0 mm 0.00 in/hr0.0 mm/hr 0.00 in0.0 mm
05:55 AM 80.4°F26.9°C 80.2°F26.8°C 99% 2.2 mph ESE3.5 kmh ESE 8.3 mph13.4 kmh 29.97 in1014.9 mb 0.00 in0.0 mm 0.00 in/hr0.0 mm/hr 0.00 in0.0 mm
05:50 AM 80.4°F26.9°C 80.2°F26.8°C 99% 4.5 mph ESE7.2 kmh ESE 8.3 mph13.4 kmh 29.96 in1014.6 mb 0.00 in0.0 mm 0.00 in/hr0.0 mm/hr 0.00 in0.0 mm
05:45 AM 80.4°F26.9°C 80.2°F26.8°C 99% 3.8 mph ESE6.1 kmh ESE 6.9 mph11.1 kmh 29.96 in1014.6 mb 0.00 in0.0 mm 0.00 in/hr0.0 mm/hr 0.00 in0.0 mm
05:40 AM 80.4°F26.9°C 80.2°F26.8°C 99% 3.1 mph ESE5.0 kmh ESE 5.4 mph8.7 kmh 29.97 in1014.9 mb 0.00 in0.0 mm 0.00 in/hr0.0 mm/hr 0.00 in0.0 mm
05:35 AM 80.4°F26.9°C 80.2°F26.8°C 99% 2.2 mph E3.5 kmh E 5.4 mph8.7 kmh 29.97 in1014.9 mb 0.00 in0.0 mm 0.00 in/hr0.0 mm/hr 0.00 in0.0 mm
05:30 AM 80.4°F26.9°C 80.2°F26.8°C 99% 3.8 mph ESE6.1 kmh ESE 5.4 mph8.7 kmh 29.97 in1014.9 mb 0.00 in0.0 mm 0.00 in/hr0.0 mm/hr 0.00 in0.0 mm
05:25 AM 80.4°F26.9°C 80.2°F26.8°C 99% 2.2 mph E3.5 kmh E 5.4 mph8.7 kmh 29.97 in1014.9 mb 0.00 in0.0 mm 0.00 in/hr0.0 mm/hr 0.00 in0.0 mm
05:20 AM 80.4°F26.9°C 80.2°F26.8°C 99% 2.2 mph E3.5 kmh E 5.4 mph8.7 kmh 29.97 in1014.9 mb 0.00 in0.0 mm 0.00 in/hr0.0 mm/hr 0.00 in0.0 mm
05:15 AM 80.4°F26.9°C 80.2°F26.8°C 99% 1.6 mph E2.6 kmh E 4.5 mph7.2 kmh 29.97 in1014.9 mb 0.00 in0.0 mm 0.00 in/hr0.0 mm/hr 0.00 in0.0 mm
05:10 AM 80.4°F26.9°C 80.2°F26.8°C 99% 2.2 mph E3.5 kmh E 4.5 mph7.2 kmh 29.97 in1014.9 mb 0.00 in0.0 mm 0.00 in/hr0.0 mm/hr 0.00 in0.0 mm
05:05 AM 80.4°F26.9°C 80.2°F26.8°C 99% 2.2 mph E3.5 kmh E 4.5 mph7.2 kmh 29.98 in1015.2 mb 0.00 in0.0 mm 0.00 in/hr0.0 mm/hr 0.00 in0.0 mm
05:00 AM 80.4°F26.9°C 80.2°F26.8°C 99% 3.1 mph E5.0 kmh E 4.5 mph7.2 kmh 29.97 in1014.9 mb 0.00 in0.0 mm 0.00 in/hr0.0 mm/hr 0.00 in0.0 mm
04:55 AM 80.4°F26.9°C 80.2°F26.8°C 99% 1.6 mph E2.6 kmh E 4.5 mph7.2 kmh 29.98 in1015.2 mb 0.00 in0.0 mm 0.00 in/hr0.0 mm/hr 0.00 in0.0 mm
04:50 AM 80.2°F26.8°C 80.0°F26.7°C 99% 1.6 mph E2.6 kmh E 5.4 mph8.7 kmh 29.97 in1014.9 mb 0.00 in0.0 mm 0.00 in/hr0.0 mm/hr 0.00 in0.0 mm
04:45 AM 80.2°F26.8°C 80.0°F26.7°C 99% 3.1 mph E5.0 kmh E 5.4 mph8.7 kmh 29.97 in1014.9 mb 0.00 in0.0 mm 0.00 in/hr0.0 mm/hr 0.00 in0.0 mm
04:40 AM 79.9°F26.6°C 79.6°F26.4°C 99% 1.6 mph E2.6 kmh E 3.8 mph6.1 kmh 29.97 in1014.9 mb 0.00 in0.0 mm 0.00 in/hr0.0 mm/hr 0.00 in0.0 mm
04:35 AM 80.1°F26.7°C 79.8°F26.6°C 99% 1.6 mph E2.6 kmh E 3.8 mph6.1 kmh 29.97 in1014.9 mb 0.00 in0.0 mm 0.00 in/hr0.0 mm/hr 0.00 in0.0 mm
04:30 AM 80.2°F26.8°C 80.0°F26.7°C 99% 1.6 mph E2.6 kmh E 3.8 mph6.1 kmh 29.98 in1015.2 mb 0.00 in0.0 mm 0.00 in/hr0.0 mm/hr 0.00 in0.0 mm
04:25 AM 80.1°F26.7°C 79.8°F26.6°C 99% 2.2 mph E3.5 kmh E 6.0 mph9.7 kmh 29.98 in1015.2 mb 0.00 in0.0 mm 0.00 in/hr0.0 mm/hr 0.00 in0.0 mm
04:20 AM 80.1°F26.7°C 79.8°F26.6°C 99% 2.2 mph E3.5 kmh E 6.0 mph9.7 kmh 29.98 in1015.2 mb 0.00 in0.0 mm 0.00 in/hr0.0 mm/hr 0.00 in0.0 mm
04:15 AM 80.1°F26.7°C 79.8°F26.6°C 99% 4.5 mph E7.2 kmh E 6.0 mph9.7 kmh 29.98 in1015.2 mb 0.00 in0.0 mm 0.00 in/hr0.0 mm/hr 0.00 in0.0 mm
04:10 AM 79.9°F26.6°C 79.6°F26.4°C 99% 3.1 mph E5.0 kmh E 6.0 mph9.7 kmh 29.98 in1015.2 mb 0.00 in0.0 mm 0.00 in/hr0.0 mm/hr 0.00 in0.0 mm
04:05 AM 79.9°F26.6°C 79.6°F26.4°C 99% 1.6 mph E2.6 kmh E 3.8 mph6.1 kmh 29.99 in1015.6 mb 0.00 in0.0 mm 0.00 in/hr0.0 mm/hr 0.00 in0.0 mm
04:00 AM 79.9°F26.6°C 79.6°F26.4°C 99% 2.2 mph ENE3.5 kmh ENE 3.8 mph6.1 kmh 29.99 in1015.6 mb 0.00 in0.0 mm 0.00 in/hr0.0 mm/hr 0.00 in0.0 mm
03:55 AM 79.9°F26.6°C 79.6°F26.4°C 99% 0.7 mph NE1.1 kmh NE 3.1 mph5.0 kmh 29.99 in1015.6 mb 0.00 in0.0 mm 0.00 in/hr0.0 mm/hr 0.00 in0.0 mm
03:50 AM 79.9°F26.6°C 79.6°F26.4°C 99% 1.6 mph NE2.6 kmh NE 3.1 mph5.0 kmh 29.99 in1015.6 mb 0.00 in0.0 mm 0.00 in/hr0.0 mm/hr 0.00 in0.0 mm
03:45 AM 79.9°F26.6°C 79.6°F26.4°C 99% 0.7 mph NE1.1 kmh NE 2.2 mph3.5 kmh 29.99 in1015.6 mb 0.00 in0.0 mm 0.00 in/hr0.0 mm/hr 0.00 in0.0 mm
03:40 AM 79.9°F26.6°C 79.6°F26.4°C 99% Calm Calm 3.1 mph5.0 kmh 30.00 in1015.9 mb 0.00 in0.0 mm 0.00 in/hr0.0 mm/hr 0.00 in0.0 mm
03:35 AM 80.1°F26.7°C 79.8°F26.6°C 99% 0.7 mph NE1.1 kmh NE 3.8 mph6.1 kmh 29.99 in1015.6 mb 0.00 in0.0 mm 0.00 in/hr0.0 mm/hr 0.00 in0.0 mm
03:30 AM 79.9°F26.6°C 79.6°F26.4°C 99% 1.6 mph NE2.6 kmh NE 3.8 mph6.1 kmh 30.00 in1015.9 mb 0.00 in0.0 mm 0.00 in/hr0.0 mm/hr 0.00 in0.0 mm
03:25 AM 80.1°F26.7°C 79.8°F26.6°C 99% 1.6 mph NE2.6 kmh NE 5.4 mph8.7 kmh 30.01 in1016.3 mb 0.00 in0.0 mm 0.00 in/hr0.0 mm/hr 0.00 in0.0 mm
03:20 AM 80.1°F26.7°C 79.8°F26.6°C 99% 3.1 mph NE5.0 kmh NE 5.4 mph8.7 kmh 30.00 in1015.9 mb 0.00 in0.0 mm 0.00 in/hr0.0 mm/hr 0.00 in0.0 mm
03:15 AM 80.1°F26.7°C 79.8°F26.6°C 99% 1.6 mph NE2.6 kmh NE 5.4 mph8.7 kmh 30.01 in1016.3 mb 0.00 in0.0 mm 0.00 in/hr0.0 mm/hr 0.00 in0.0 mm
03:10 AM 80.2°F26.8°C 80.0°F26.7°C 99% 1.6 mph NE2.6 kmh NE 5.4 mph8.7 kmh 30.01 in1016.3 mb 0.00 in0.0 mm 0.00 in/hr0.0 mm/hr 0.00 in0.0 mm
03:05 AM 80.2°F26.8°C 79.7°F26.5°C 98% 3.1 mph NE5.0 kmh NE 5.4 mph8.7 kmh 30.01 in1016.3 mb 0.00 in0.0 mm 0.00 in/hr0.0 mm/hr 0.00 in0.0 mm
03:00 AM 80.2°F26.8°C 79.7°F26.5°C 98% 2.2 mph NE3.5 kmh NE 6.0 mph9.7 kmh 30.01 in1016.3 mb 0.00 in0.0 mm 0.00 in/hr0.0 mm/hr 0.00 in0.0 mm
02:55 AM 80.2°F26.8°C 79.7°F26.5°C 98% 3.1 mph NE5.0 kmh NE 6.0 mph9.7 kmh 30.01 in1016.3 mb 0.00 in0.0 mm 0.00 in/hr0.0 mm/hr 0.00 in0.0 mm
02:50 AM 80.2°F26.8°C 79.7°F26.5°C 98% 3.8 mph NE6.1 kmh NE 6.9 mph11.1 kmh 30.01 in1016.3 mb 0.00 in0.0 mm 0.00 in/hr0.0 mm/hr 0.00 in0.0 mm
02:45 AM 80.2°F26.8°C 79.7°F26.5°C 98% 3.8 mph NE6.1 kmh NE 8.3 mph13.4 kmh 30.01 in1016.3 mb 0.00 in0.0 mm 0.00 in/hr0.0 mm/hr 0.00 in0.0 mm
02:40 AM 80.2°F26.8°C 80.0°F26.7°C 99% 3.1 mph NE5.0 kmh NE 8.3 mph13.4 kmh 30.01 in1016.3 mb 0.00 in0.0 mm 0.00 in/hr0.0 mm/hr 0.00 in0.0 mm
02:35 AM 80.2°F26.8°C 80.0°F26.7°C 99% 5.4 mph ENE8.7 kmh ENE 8.3 mph13.4 kmh 30.02 in1016.6 mb 0.00 in0.0 mm 0.00 in/hr0.0 mm/hr 0.00 in0.0 mm
02:30 AM 80.2°F26.8°C 80.0°F26.7°C 99% 4.5 mph ENE7.2 kmh ENE 6.9 mph11.1 kmh 30.02 in1016.6 mb 0.00 in0.0 mm 0.00 in/hr0.0 mm/hr 0.00 in0.0 mm
02:25 AM 80.2°F26.8°C 80.0°F26.7°C 99% 3.8 mph NE6.1 kmh NE 6.0 mph9.7 kmh 30.02 in1016.6 mb 0.00 in0.0 mm 0.00 in/hr0.0 mm/hr 0.00 in0.0 mm
02:20 AM 80.1°F26.7°C 79.8°F26.6°C 99% 2.2 mph NE3.5 kmh NE 4.5 mph7.2 kmh 30.02 in1016.6 mb 0.00 in0.0 mm 0.00 in/hr0.0 mm/hr 0.00 in0.0 mm
02:15 AM 80.2°F26.8°C 80.0°F26.7°C 99% 2.2 mph ENE3.5 kmh ENE 6.0 mph9.7 kmh 30.02 in1016.6 mb 0.00 in0.0 mm 0.00 in/hr0.0 mm/hr 0.00 in0.0 mm
02:10 AM 80.2°F26.8°C 80.0°F26.7°C 99% 2.2 mph E3.5 kmh E 6.0 mph9.7 kmh 30.03 in1016.9 mb 0.00 in0.0 mm 0.00 in/hr0.0 mm/hr 0.00 in0.0 mm
02:05 AM 80.1°F26.7°C 79.8°F26.6°C 99% 3.1 mph ENE5.0 kmh ENE 5.4 mph8.7 kmh 30.03 in1016.9 mb 0.00 in0.0 mm 0.00 in/hr0.0 mm/hr 0.00 in0.0 mm
02:00 AM 80.1°F26.7°C 79.8°F26.6°C 99% 3.1 mph NE5.0 kmh NE 5.4 mph8.7 kmh 30.03 in1016.9 mb 0.00 in0.0 mm 0.00 in/hr0.0 mm/hr 0.00 in0.0 mm
01:55 AM 80.2°F26.8°C 80.0°F26.7°C 99% 3.1 mph NE5.0 kmh NE 5.4 mph8.7 kmh 30.03 in1016.9 mb 0.00 in0.0 mm 0.00 in/hr0.0 mm/hr 0.00 in0.0 mm
01:50 AM 80.2°F26.8°C 80.0°F26.7°C 99% 1.6 mph NE2.6 kmh NE 3.8 mph6.1 kmh 30.03 in1016.9 mb 0.00 in0.0 mm 0.00 in/hr0.0 mm/hr 0.00 in0.0 mm
01:45 AM 80.2°F26.8°C 80.0°F26.7°C 99% 1.6 mph NE2.6 kmh NE 3.8 mph6.1 kmh 30.03 in1016.9 mb 0.00 in0.0 mm 0.00 in/hr0.0 mm/hr 0.00 in0.0 mm
01:40 AM 80.2°F26.8°C 80.0°F26.7°C 99% 1.6 mph NE2.6 kmh NE 5.4 mph8.7 kmh 30.03 in1016.9 mb 0.00 in0.0 mm 0.00 in/hr0.0 mm/hr 0.00 in0.0 mm
01:35 AM 80.2°F26.8°C 80.0°F26.7°C 99% 2.2 mph ENE3.5 kmh ENE 5.4 mph8.7 kmh 30.03 in1016.9 mb 0.00 in0.0 mm 0.00 in/hr0.0 mm/hr 0.00 in0.0 mm
01:30 AM 80.2°F26.8°C 80.0°F26.7°C 99% 2.2 mph E3.5 kmh E 3.8 mph6.1 kmh 30.03 in1016.9 mb 0.00 in0.0 mm 0.00 in/hr0.0 mm/hr 0.00 in0.0 mm
01:25 AM 80.2°F26.8°C 80.0°F26.7°C 99% 3.1 mph E5.0 kmh E 4.5 mph7.2 kmh 30.03 in1016.9 mb 0.00 in0.0 mm 0.00 in/hr0.0 mm/hr 0.00 in0.0 mm
01:20 AM 80.2°F26.8°C 80.0°F26.7°C 99% 2.2 mph NE3.5 kmh NE 4.5 mph7.2 kmh 30.03 in1016.9 mb 0.00 in0.0 mm 0.00 in/hr0.0 mm/hr 0.00 in0.0 mm
01:15 AM 80.2°F26.8°C 80.0°F26.7°C 99% 0.7 mph NE1.1 kmh NE 2.2 mph3.5 kmh 30.04 in1017.3 mb 0.00 in0.0 mm 0.00 in/hr0.0 mm/hr 0.00 in0.0 mm
01:10 AM 80.2°F26.8°C 80.0°F26.7°C 99% Calm Calm 2.2 mph3.5 kmh 30.03 in1016.9 mb 0.00 in0.0 mm 0.00 in/hr0.0 mm/hr 0.00 in0.0 mm
01:05 AM 80.2°F26.8°C 80.0°F26.7°C 99% 0.7 mph E1.1 kmh E 3.1 mph5.0 kmh 30.04 in1017.3 mb 0.00 in0.0 mm 0.00 in/hr0.0 mm/hr 0.00 in0.0 mm
01:00 AM 80.2°F26.8°C 80.0°F26.7°C 99% 1.6 mph ENE2.6 kmh ENE 3.1 mph5.0 kmh 30.03 in1016.9 mb 0.00 in0.0 mm 0.00 in/hr0.0 mm/hr 0.00 in0.0 mm
12:55 AM 80.2°F26.8°C 80.0°F26.7°C 99% 1.6 mph NE2.6 kmh NE 3.1 mph5.0 kmh 30.04 in1017.3 mb 0.00 in0.0 mm 0.00 in/hr0.0 mm/hr 0.00 in0.0 mm
12:50 AM 80.4°F26.9°C 80.2°F26.8°C 99% 2.2 mph NE3.5 kmh NE 3.1 mph5.0 kmh 30.04 in1017.3 mb 0.00 in0.0 mm 0.00 in/hr0.0 mm/hr 0.00 in0.0 mm
12:45 AM 80.4°F26.9°C 80.2°F26.8°C 99% 0.7 mph NE1.1 kmh NE 3.1 mph5.0 kmh 30.04 in1017.3 mb 0.00 in0.0 mm 0.00 in/hr0.0 mm/hr 0.00 in0.0 mm
12:40 AM 80.4°F26.9°C 80.2°F26.8°C 99% 0.7 mph NE1.1 kmh NE 5.4 mph8.7 kmh 30.05 in1017.6 mb 0.00 in0.0 mm 0.00 in/hr0.0 mm/hr 0.00 in0.0 mm
12:35 AM 80.4°F26.9°C 80.2°F26.8°C 99% 0.7 mph NE1.1 kmh NE 6.0 mph9.7 kmh 30.05 in1017.6 mb 0.00 in0.0 mm 0.00 in/hr0.0 mm/hr 0.00 in0.0 mm
12:30 AM 80.4°F26.9°C 80.2°F26.8°C 99% 3.1 mph NE5.0 kmh NE 6.0 mph9.7 kmh 30.05 in1017.6 mb 0.00 in0.0 mm 0.00 in/hr0.0 mm/hr 0.00 in0.0 mm
12:25 AM 80.4°F26.9°C 80.2°F26.8°C 99% 2.2 mph E3.5 kmh E 4.5 mph7.2 kmh 30.04 in1017.3 mb 0.00 in0.0 mm 0.00 in/hr0.0 mm/hr 0.00 in0.0 mm
12:20 AM 80.4°F26.9°C 80.2°F26.8°C 99% 3.1 mph E5.0 kmh E 5.4 mph8.7 kmh 30.05 in1017.6 mb 0.00 in0.0 mm 0.00 in/hr0.0 mm/hr 0.00 in0.0 mm
12:15 AM 80.4°F26.9°C 80.2°F26.8°C 99% 3.1 mph NE5.0 kmh NE 5.4 mph8.7 kmh 30.05 in1017.6 mb 0.00 in0.0 mm 0.00 in/hr0.0 mm/hr 0.00 in0.0 mm
12:10 AM 80.4°F26.9°C 80.2°F26.8°C 99% 2.2 mph NE3.5 kmh NE 6.0 mph9.7 kmh 30.05 in1017.6 mb 0.00 in0.0 mm 0.00 in/hr0.0 mm/hr 0.00 in0.0 mm
12:05 AM 80.4°F26.9°C 80.2°F26.8°C 99% 3.1 mph ENE5.0 kmh ENE 6.0 mph9.7 kmh 30.05 in1017.6 mb 0.00 in0.0 mm 0.00 in/hr0.0 mm/hr 0.00 in0.0 mm
12:00 AM 80.4°F26.9°C 80.2°F26.8°C 99% 3.8 mph NE6.1 kmh NE 6.0 mph9.7 kmh 30.04 in1017.3 mb 0.00 in0.0 mm 0.00 in/hr0.0 mm/hr 0.00 in0.0 mm